createdAt,value
2022-08-03T00:07:00.903Z,21.30
2022-08-03T00:10:11.546Z,21.37
2022-08-03T00:13:24.578Z,21.39
2022-08-03T00:16:34.100Z,21.41
2022-08-03T00:19:28.372Z,21.37
2022-08-03T00:22:05.958Z,21.36
2022-08-03T00:24:54.658Z,21.36
2022-08-03T00:27:25.619Z,21.30
2022-08-03T00:30:00.294Z,21.30
2022-08-03T00:32:44.972Z,21.25
2022-08-03T00:35:50.677Z,21.24
2022-08-03T00:38:46.726Z,21.21
2022-08-03T00:42:30.330Z,21.23
2022-08-03T00:45:36.870Z,21.21
2022-08-03T00:48:36.347Z,21.20
2022-08-03T00:51:04.780Z,21.17
2022-08-03T00:53:32.992Z,21.12
2022-08-03T00:56:03.317Z,21.10
2022-08-03T00:58:31.398Z,21.10
2022-08-03T01:01:07.471Z,21.09
2022-08-03T01:03:35.670Z,21.07
2022-08-03T01:06:18.919Z,21.06
2022-08-03T01:08:57.745Z,20.98
2022-08-03T01:12:00.968Z,20.90
2022-08-03T01:14:56.077Z,20.83
2022-08-03T01:17:34.612Z,20.81
2022-08-03T01:20:14.833Z,20.77
2022-08-03T01:23:01.242Z,20.72
2022-08-03T01:25:54.266Z,20.64
2022-08-03T01:28:48.321Z,20.63
2022-08-03T01:31:21.541Z,20.64
2022-08-03T01:33:57.303Z,20.63
2022-08-03T01:36:30.364Z,20.62
2022-08-03T01:39:09.809Z,20.59
2022-08-03T01:41:44.781Z,20.51
2022-08-03T01:44:29.358Z,20.46
2022-08-03T01:47:00.733Z,20.47
2022-08-03T01:49:32.503Z,20.48
2022-08-03T01:52:05.521Z,20.46
2022-08-03T01:54:40.906Z,20.49
2022-08-03T01:57:10.095Z,20.45
2022-08-03T01:59:42.502Z,20.41
2022-08-03T02:02:33.123Z,20.38
2022-08-03T02:05:10.743Z,20.31
2022-08-03T02:07:42.164Z,20.30
2022-08-03T02:10:12.084Z,20.26
2022-08-03T02:12:46.111Z,20.28
2022-08-03T02:15:16.357Z,20.31
2022-08-03T02:17:47.473Z,20.29
2022-08-03T02:20:16.399Z,20.23
2022-08-03T02:22:46.732Z,20.22
2022-08-03T02:25:17.341Z,20.22
2022-08-03T02:27:55.349Z,20.19
2022-08-03T02:30:31.335Z,20.14
2022-08-03T02:33:01.568Z,20.10
2022-08-03T02:35:36.105Z,20.09
2022-08-03T02:38:11.935Z,20.09
2022-08-03T02:40:43.563Z,20.08
2022-08-03T02:43:17.427Z,20.08
2022-08-03T02:45:49.526Z,20.12
2022-08-03T02:48:23.746Z,20.10
2022-08-03T02:50:54.263Z,20.12
2022-08-03T02:53:24.127Z,20.10
2022-08-03T02:55:54.141Z,20.15
2022-08-03T02:58:24.978Z,20.11
2022-08-03T03:00:54.413Z,20.07
2022-08-03T03:03:23.502Z,20.07
2022-08-03T03:05:57.754Z,20.12
2022-08-03T03:08:28.381Z,20.12
2022-08-03T03:11:02.288Z,20.13
2022-08-03T03:13:32.038Z,20.10
2022-08-03T03:16:05.098Z,20.12
2022-08-03T03:18:34.749Z,20.17
2022-08-03T03:21:05.105Z,20.22
2022-08-03T03:23:37.594Z,20.29
2022-08-03T03:26:07.587Z,20.32
2022-08-03T03:28:42.687Z,20.39
2022-08-03T03:31:11.781Z,20.50
2022-08-03T03:33:39.887Z,20.58
2022-08-03T03:36:11.143Z,20.67
2022-08-03T03:38:41.757Z,20.76
2022-08-03T03:41:10.494Z,20.87
2022-08-03T03:43:38.314Z,20.92
2022-08-03T03:46:06.688Z,20.96
2022-08-03T03:48:34.593Z,20.94
2022-08-03T03:51:04.770Z,21.00
2022-08-03T03:53:32.595Z,21.00
2022-08-03T03:56:04.167Z,21.03
2022-08-03T03:58:33.152Z,21.05
2022-08-03T04:01:04.668Z,21.09
2022-08-03T04:03:33.585Z,21.09
2022-08-03T04:06:21.102Z,21.11
2022-08-03T04:09:07.832Z,21.18
2022-08-03T04:11:40.804Z,21.26
2022-08-03T04:14:13.686Z,21.31
2022-08-03T04:16:51.725Z,21.35
2022-08-03T04:19:45.289Z,21.40
2022-08-03T04:22:53.858Z,21.44
2022-08-03T04:25:29.341Z,21.48
2022-08-03T04:28:30.451Z,21.53
2022-08-03T04:31:01.458Z,21.55
2022-08-03T04:33:32.729Z,21.64
2022-08-03T04:36:03.732Z,21.66
2022-08-03T04:38:36.924Z,21.69
2022-08-03T04:41:05.256Z,21.78
2022-08-03T04:43:34.410Z,21.89
2022-08-03T04:46:04.160Z,22.02
2022-08-03T04:48:33.108Z,22.13
2022-08-03T04:51:04.790Z,22.14
2022-08-03T04:53:33.914Z,22.14
2022-08-03T04:56:08.221Z,22.18
2022-08-03T04:58:36.256Z,22.18
2022-08-03T05:01:04.166Z,22.25
2022-08-03T05:03:38.319Z,22.31
2022-08-03T05:06:10.938Z,22.31
2022-08-03T05:09:49.900Z,22.26
2022-08-03T05:12:19.749Z,22.28
2022-08-03T05:14:47.760Z,22.23
2022-08-03T05:17:15.688Z,22.31
2022-08-03T05:19:45.776Z,22.39
2022-08-03T05:22:14.238Z,22.47
2022-08-03T05:24:45.082Z,22.55
2022-08-03T05:27:19.320Z,22.64
2022-08-03T05:29:51.072Z,22.77
2022-08-03T05:32:19.641Z,22.87
2022-08-03T05:34:48.776Z,22.96
2022-08-03T05:37:16.619Z,22.99
2022-08-03T05:39:44.410Z,23.03
2022-08-03T05:42:15.313Z,23.08
2022-08-03T05:44:43.736Z,23.01
2022-08-03T05:47:11.781Z,22.97
2022-08-03T05:49:40.569Z,22.96
2022-08-03T05:52:12.653Z,22.96
2022-08-03T05:54:56.097Z,22.90
2022-08-03T05:57:26.859Z,22.83
2022-08-03T05:59:58.431Z,22.82
2022-08-03T06:02:27.832Z,22.86
2022-08-03T06:04:55.616Z,22.91
2022-08-03T06:07:23.510Z,22.97
2022-08-03T06:10:35.007Z,23.04
2022-08-03T06:12:41.411Z,23.20
2022-08-03T06:15:11.428Z,23.41
2022-08-03T06:17:49.649Z,23.66
2022-08-03T06:20:19.830Z,23.87
2022-08-03T06:22:51.042Z,23.98
2022-08-03T06:25:21.219Z,24.06
2022-08-03T06:27:49.623Z,24.15
2022-08-03T06:30:21.001Z,24.24
2022-08-03T06:32:51.651Z,24.28
2022-08-03T06:35:20.248Z,24.12
2022-08-03T06:37:50.624Z,24.07
2022-08-03T06:40:21.607Z,24.05
2022-08-03T06:42:49.830Z,24.01
2022-08-03T06:45:18.741Z,23.99
2022-08-03T06:47:46.572Z,23.93
2022-08-03T06:50:16.886Z,23.87
2022-08-03T06:52:46.392Z,23.86
2022-08-03T06:55:14.303Z,23.82
2022-08-03T06:57:42.562Z,23.80
2022-08-03T07:00:12.851Z,23.80
2022-08-03T07:02:41.340Z,23.75
2022-08-03T07:05:10.658Z,23.77
2022-08-03T07:07:38.998Z,23.80
2022-08-03T07:10:08.109Z,23.81
2022-08-03T07:12:38.951Z,23.87
2022-08-03T07:15:55.509Z,23.93
2022-08-03T07:18:27.555Z,24.04
2022-08-03T07:21:02.792Z,24.27
2022-08-03T07:23:31.266Z,24.55
2022-08-03T07:25:59.214Z,24.86
2022-08-03T07:28:27.388Z,25.17
2022-08-03T07:30:59.577Z,25.36
2022-08-03T07:33:27.836Z,25.52
2022-08-03T07:36:04.584Z,25.50
2022-08-03T07:38:32.623Z,25.48
2022-08-03T07:41:00.583Z,25.55
2022-08-03T07:43:32.743Z,25.64
2022-08-03T07:46:00.796Z,25.58
2022-08-03T07:48:28.766Z,25.51
2022-08-03T07:50:56.892Z,25.22
2022-08-03T07:53:25.253Z,25.10
2022-08-03T07:56:18.110Z,25.16
2022-08-03T07:58:46.447Z,25.24
2022-08-03T08:01:18.587Z,25.34
2022-08-03T08:03:53.250Z,25.45
2022-08-03T08:06:25.681Z,25.58
2022-08-03T08:08:55.436Z,25.60
2022-08-03T08:11:26.544Z,25.74
2022-08-03T08:13:56.447Z,25.94
2022-08-03T08:16:28.020Z,26.00
2022-08-03T08:18:59.725Z,26.19
2022-08-03T08:22:01.922Z,26.38
2022-08-03T08:24:41.109Z,26.49
2022-08-03T08:27:12.672Z,26.67
2022-08-03T08:29:47.565Z,26.83
2022-08-03T08:32:22.191Z,26.84
2022-08-03T08:34:50.961Z,26.92
2022-08-03T08:37:19.005Z,26.95
2022-08-03T08:39:46.801Z,26.97
2022-08-03T08:42:17.937Z,27.14
2022-08-03T08:44:46.826Z,27.29
2022-08-03T08:47:19.356Z,27.37
2022-08-03T08:50:08.955Z,27.39
2022-08-03T08:53:04.106Z,27.47
2022-08-03T08:55:58.378Z,27.53
2022-08-03T08:58:23.667Z,27.67
2022-08-03T09:00:52.134Z,27.73
2022-08-03T09:03:29.258Z,27.71
2022-08-03T09:06:03.823Z,27.80
2022-08-03T09:08:35.153Z,27.82
2022-08-03T09:11:08.678Z,27.87
2022-08-03T09:13:40.795Z,27.88
2022-08-03T09:16:18.998Z,28.05
2022-08-03T09:18:50.711Z,28.14
2022-08-03T09:21:34.223Z,28.23
2022-08-03T09:24:13.000Z,28.14
2022-08-03T09:26:57.379Z,28.23
2022-08-03T09:29:42.795Z,28.30
2022-08-03T09:32:38.668Z,28.32
2022-08-03T09:38:28.892Z,28.58
2022-08-03T09:41:00.308Z,28.77
2022-08-03T09:43:30.062Z,28.91
2022-08-03T09:46:09.534Z,28.94
2022-08-03T09:48:37.647Z,28.78
2022-08-03T09:51:13.152Z,28.66
2022-08-03T09:54:16.334Z,28.60
2022-08-03T09:56:47.880Z,28.40
2022-08-03T09:59:25.154Z,28.27
2022-08-03T10:01:55.962Z,28.05
2022-08-03T10:04:24.541Z,27.93
2022-08-03T10:07:23.473Z,27.74
2022-08-03T10:09:58.157Z,27.52
2022-08-03T10:12:48.537Z,27.62
2022-08-03T10:16:22.239Z,27.80
2022-08-03T10:18:05.482Z,28.01
2022-08-03T10:20:40.359Z,28.33
2022-08-03T10:23:11.796Z,28.67
2022-08-03T10:25:45.286Z,28.93
2022-08-03T10:28:18.217Z,29.16
2022-08-03T10:31:21.128Z,29.54
2022-08-03T10:33:58.842Z,29.77
2022-08-03T10:36:32.583Z,29.89
2022-08-03T10:39:15.943Z,29.91
2022-08-03T10:41:50.846Z,29.95
2022-08-03T10:47:16.303Z,30.10
2022-08-03T10:49:48.009Z,30.22
2022-08-03T10:52:31.944Z,30.30
2022-08-03T10:55:21.390Z,30.32
2022-08-03T10:57:58.884Z,30.40
2022-08-03T11:00:30.530Z,30.47
2022-08-03T11:03:05.003Z,30.51
2022-08-03T11:05:39.034Z,30.50
2022-08-03T11:08:39.555Z,30.49
2022-08-03T11:11:24.276Z,30.48
2022-08-03T11:14:22.278Z,30.53
2022-08-03T11:16:53.636Z,30.45
2022-08-03T11:19:28.425Z,30.53
2022-08-03T11:21:58.724Z,30.57
2022-08-03T11:24:54.483Z,30.57
2022-08-03T11:27:32.807Z,30.56
2022-08-03T11:30:27.663Z,30.58
2022-08-03T11:32:59.828Z,30.69
2022-08-03T11:35:36.708Z,30.35
2022-08-03T11:38:07.563Z,30.14
2022-08-03T11:40:39.173Z,30.21
2022-08-03T11:47:55.831Z,30.26
2022-08-03T11:50:24.780Z,30.30
2022-08-03T11:52:55.930Z,30.31
2022-08-03T11:55:36.408Z,30.25
2022-08-03T11:59:16.631Z,30.32
2022-08-03T12:00:53.395Z,30.34
2022-08-03T12:03:21.517Z,30.31
2022-08-03T12:05:56.490Z,30.25
2022-08-03T12:08:26.624Z,30.28
2022-08-03T12:11:00.162Z,30.28
2022-08-03T12:14:45.593Z,30.31
2022-08-03T12:16:35.308Z,30.24
2022-08-03T12:19:07.131Z,30.18
2022-08-03T12:21:35.133Z,30.21
2022-08-03T12:24:07.859Z,30.28
2022-08-03T12:26:56.819Z,30.20
2022-08-03T12:29:30.623Z,30.20
2022-08-03T12:31:59.286Z,30.24
2022-08-03T12:34:43.021Z,30.20
2022-08-03T12:37:28.676Z,30.02
2022-08-03T12:40:09.522Z,29.63
2022-08-03T12:42:56.595Z,29.56
2022-08-03T12:45:27.155Z,29.59
2022-08-03T12:48:08.549Z,29.73
2022-08-03T12:50:53.666Z,29.91
2022-08-03T12:53:30.475Z,29.99
2022-08-03T12:56:05.625Z,29.93
2022-08-03T12:58:36.998Z,30.10
2022-08-03T13:01:09.878Z,30.16
2022-08-03T13:03:57.566Z,29.98
2022-08-03T13:06:30.117Z,29.88
2022-08-03T13:09:08.521Z,29.78
2022-08-03T13:12:08.239Z,29.67
2022-08-03T13:14:37.408Z,29.62
2022-08-03T13:17:08.909Z,29.57
2022-08-03T13:19:38.289Z,29.60
2022-08-03T13:22:23.739Z,29.62
2022-08-03T13:35:22.940Z,29.42
2022-08-03T13:38:32.243Z,29.29
2022-08-03T13:41:19.315Z,29.33
2022-08-03T13:44:29.106Z,29.34
2022-08-03T13:47:02.256Z,29.36
2022-08-03T13:49:40.452Z,29.25
2022-08-03T13:52:09.133Z,29.12
2022-08-03T13:54:37.388Z,29.01
2022-08-03T13:58:11.429Z,29.09
2022-08-03T14:00:29.695Z,29.13
2022-08-03T14:03:14.919Z,29.07
2022-08-03T14:05:44.545Z,29.03
2022-08-03T14:08:37.388Z,29.05
2022-08-03T14:11:06.759Z,28.95
2022-08-03T14:13:34.872Z,28.93
2022-08-03T14:16:53.241Z,28.86
2022-08-03T14:19:25.025Z,28.76
2022-08-03T14:22:06.453Z,28.74
2022-08-03T14:24:35.939Z,28.80
2022-08-03T14:27:08.827Z,28.76
2022-08-03T14:29:40.867Z,28.69
2022-08-03T14:32:10.025Z,28.67
2022-08-03T14:35:05.945Z,28.68
2022-08-03T14:37:38.665Z,28.67
2022-08-03T14:40:11.647Z,28.65
2022-08-03T14:42:39.870Z,28.64
2022-08-03T14:45:19.720Z,28.62
2022-08-03T14:50:10.471Z,28.57
2022-08-03T14:50:43.146Z,28.55
2022-08-03T14:53:17.765Z,28.55
2022-08-03T14:55:50.660Z,28.59
2022-08-03T14:58:23.635Z,28.63
2022-08-03T15:00:53.217Z,28.64
2022-08-03T15:03:25.763Z,28.61
2022-08-03T15:05:57.693Z,28.58
2022-08-03T15:08:26.423Z,28.56
2022-08-03T15:10:54.975Z,28.56
2022-08-03T15:13:23.003Z,28.55
2022-08-03T15:15:51.943Z,28.50
2022-08-03T15:18:23.892Z,28.51
2022-08-03T15:20:51.940Z,28.50
2022-08-03T15:23:20.048Z,28.50
2022-08-03T15:26:03.845Z,28.50
2022-08-03T15:28:37.398Z,28.50
2022-08-03T15:31:06.720Z,28.49
2022-08-03T15:33:35.252Z,28.41
2022-08-03T15:36:04.407Z,28.34
2022-08-03T15:38:32.339Z,28.29
2022-08-03T15:41:00.429Z,28.24
2022-08-03T15:43:28.347Z,28.21
2022-08-03T15:47:11.106Z,28.17
2022-08-03T15:49:42.431Z,28.14
2022-08-03T15:52:10.528Z,28.17
2022-08-03T15:55:03.770Z,28.22
2022-08-03T15:57:31.829Z,28.16
2022-08-03T15:59:59.765Z,28.10
2022-08-03T16:02:27.749Z,28.06
2022-08-03T16:04:55.648Z,28.03
2022-08-03T16:07:42.016Z,28.01
2022-08-03T16:10:34.704Z,27.95
2022-08-03T16:13:02.946Z,27.93
2022-08-03T16:15:30.757Z,27.93
2022-08-03T16:17:58.766Z,27.93
2022-08-03T16:20:31.496Z,27.95
2022-08-03T16:23:10.416Z,27.99
2022-08-03T16:25:40.777Z,28.02
2022-08-03T16:28:13.737Z,28.02
2022-08-03T16:30:44.235Z,28.06
2022-08-03T16:33:17.279Z,28.13
2022-08-03T16:35:47.100Z,28.22
2022-08-03T16:38:40.488Z,28.28
2022-08-03T16:41:09.656Z,28.29
2022-08-03T16:43:37.950Z,28.27
2022-08-03T16:46:07.561Z,28.25
2022-08-03T16:48:35.752Z,28.27
2022-08-03T16:51:03.762Z,28.25
2022-08-03T16:53:51.632Z,28.24
2022-08-03T16:56:54.420Z,28.19
2022-08-03T16:59:36.156Z,28.13
2022-08-03T17:02:10.117Z,28.08
2022-08-03T17:04:40.330Z,28.03
2022-08-03T17:07:18.679Z,27.99
2022-08-03T17:09:48.169Z,27.94
2022-08-03T17:12:17.529Z,27.86
2022-08-03T17:14:46.349Z,27.83
2022-08-03T17:17:24.845Z,27.78
2022-08-03T17:19:54.289Z,27.74
2022-08-03T17:22:31.291Z,27.73
2022-08-03T17:25:07.948Z,27.71
2022-08-03T17:28:49.398Z,27.63
2022-08-03T17:30:46.119Z,27.58
2022-08-03T17:33:20.621Z,27.51
2022-08-03T17:35:53.019Z,27.40
2022-08-03T17:38:25.238Z,27.36
2022-08-03T17:41:00.358Z,27.33
2022-08-03T17:44:14.378Z,27.32
2022-08-03T17:46:29.422Z,27.27
2022-08-03T17:48:59.654Z,27.20
2022-08-03T17:51:36.661Z,27.13
2022-08-03T17:55:56.041Z,27.10
2022-08-03T17:58:02.218Z,27.03
2022-08-03T18:00:52.319Z,26.92
2022-08-03T18:03:57.841Z,26.73
2022-08-03T18:06:39.206Z,26.63
2022-08-03T18:10:05.926Z,26.59
2022-08-03T18:12:23.369Z,26.52
2022-08-03T18:15:08.494Z,26.49
2022-08-03T18:17:55.887Z,26.45
2022-08-03T18:20:42.397Z,26.39
2022-08-03T18:23:24.625Z,26.32
2022-08-03T18:26:12.050Z,26.25
2022-08-03T18:28:40.835Z,26.18
2022-08-03T18:31:32.938Z,26.12
2022-08-03T18:34:20.038Z,26.09
2022-08-03T18:36:55.977Z,26.05
2022-08-03T18:39:24.048Z,26.01
2022-08-03T18:41:52.666Z,25.99
2022-08-03T18:44:46.437Z,25.93
2022-08-03T18:47:51.003Z,25.85
2022-08-03T18:50:35.721Z,25.75
2022-08-03T18:53:21.091Z,25.61
2022-08-03T18:56:04.913Z,25.52
2022-08-03T18:58:41.733Z,25.44
2022-08-03T19:04:31.597Z,25.46
2022-08-03T19:07:07.867Z,25.45
2022-08-03T19:09:56.570Z,25.45
2022-08-03T19:12:37.857Z,25.40
2022-08-03T19:15:12.667Z,25.36
2022-08-03T19:17:53.164Z,25.34
2022-08-03T19:20:24.967Z,25.31
2022-08-03T19:22:57.201Z,25.27
2022-08-03T19:25:35.108Z,25.25
2022-08-03T19:28:06.212Z,25.21
2022-08-03T19:30:39.083Z,25.17
2022-08-03T19:33:09.716Z,25.10
2022-08-03T19:35:55.022Z,25.06
2022-08-03T19:38:29.048Z,25.00
2022-08-03T19:41:04.234Z,25.00
2022-08-03T19:43:49.507Z,24.98
2022-08-03T19:46:30.721Z,24.91
2022-08-03T19:49:10.561Z,24.89
2022-08-03T19:54:54.029Z,24.86
2022-08-03T19:57:27.372Z,24.84
2022-08-03T20:00:03.326Z,24.80
2022-08-03T20:02:36.691Z,24.78
2022-08-03T20:05:05.966Z,24.78
2022-08-03T20:07:49.023Z,24.75
2022-08-03T20:10:18.150Z,24.70
2022-08-03T20:15:53.326Z,24.63
2022-08-03T20:18:22.181Z,24.58
2022-08-03T20:20:52.469Z,24.50
2022-08-03T20:23:21.297Z,24.39
2022-08-03T20:26:00.382Z,24.36
2022-08-03T20:31:23.945Z,24.34
2022-08-03T20:33:59.828Z,24.28
2022-08-03T20:36:27.909Z,24.21
2022-08-03T20:38:57.979Z,24.15
2022-08-03T20:41:26.253Z,24.13
2022-08-03T20:43:57.483Z,24.15
2022-08-03T20:46:31.916Z,24.13
2022-08-03T20:49:05.648Z,24.07
2022-08-03T20:51:49.647Z,23.99
2022-08-03T20:54:29.235Z,23.95
2022-08-03T20:57:03.781Z,23.94
2022-08-03T20:59:50.534Z,23.95
2022-08-03T21:02:29.732Z,23.89
2022-08-03T21:05:12.552Z,23.88
2022-08-03T21:13:09.823Z,24.87
2022-08-03T21:13:09.931Z,25.46
2022-08-03T21:13:18.567Z,23.83
2022-08-03T21:16:02.560Z,23.82
2022-08-03T21:18:44.598Z,23.84
2022-08-03T21:21:16.599Z,23.84
2022-08-03T21:23:49.620Z,23.81
2022-08-03T21:26:19.944Z,23.80
2022-08-03T21:28:53.019Z,23.80
2022-08-03T21:31:25.472Z,23.78
2022-08-03T21:33:56.074Z,23.77
2022-08-03T21:36:26.864Z,23.77
2022-08-03T21:38:57.004Z,23.76
2022-08-03T21:41:30.691Z,23.77
2022-08-03T21:43:59.190Z,23.75
2022-08-03T21:46:36.800Z,23.73
2022-08-03T21:50:05.806Z,23.72
2022-08-03T21:51:59.805Z,23.71
2022-08-03T21:54:41.570Z,23.67
2022-08-03T21:57:17.759Z,23.63
2022-08-03T21:59:54.264Z,23.61
2022-08-03T22:02:31.332Z,23.58
2022-08-03T22:05:00.058Z,23.57
2022-08-03T22:07:29.497Z,23.55
2022-08-03T22:09:59.711Z,23.54
2022-08-03T22:12:30.841Z,23.46
2022-08-03T22:15:02.108Z,23.41
2022-08-03T22:17:55.105Z,23.38
2022-08-03T22:20:22.290Z,23.34
2022-08-03T22:22:56.088Z,23.32
2022-08-03T22:25:31.349Z,23.31
2022-08-03T22:28:06.888Z,23.26
2022-08-03T22:30:35.293Z,23.24
2022-08-03T22:33:05.370Z,23.21
2022-08-03T22:35:46.446Z,23.17
2022-08-03T22:38:18.323Z,23.16
2022-08-03T22:40:50.025Z,23.13
2022-08-03T22:43:21.758Z,23.12
2022-08-03T22:46:08.999Z,23.11
2022-08-03T22:48:41.306Z,23.08
2022-08-03T22:51:10.386Z,23.06
2022-08-03T22:53:39.305Z,23.03
2022-08-03T22:56:07.129Z,23.03
2022-08-03T22:58:34.927Z,23.00
2022-08-03T23:01:06.493Z,22.97
2022-08-03T23:04:00.228Z,22.93
2022-08-03T23:06:35.087Z,22.89
2022-08-03T23:09:09.409Z,22.83
2022-08-03T23:11:45.504Z,22.80
2022-08-03T23:14:16.438Z,22.79
2022-08-03T23:16:45.824Z,22.76
2022-08-03T23:19:25.309Z,22.74
2022-08-03T23:22:03.279Z,22.67
2022-08-03T23:24:39.290Z,22.61
2022-08-03T23:27:08.925Z,22.61
2022-08-03T23:29:38.257Z,22.59
2022-08-03T23:32:07.049Z,22.61
2022-08-03T23:34:57.264Z,22.56
2022-08-03T23:37:26.263Z,22.56
2022-08-03T23:39:57.074Z,22.50
2022-08-03T23:42:26.414Z,22.46
2022-08-03T23:44:59.487Z,22.46
2022-08-03T23:47:45.946Z,22.44
2022-08-03T23:50:17.535Z,22.42
2022-08-03T23:52:58.210Z,22.41
2022-08-03T23:55:26.059Z,22.37
2022-08-03T23:58:18.206Z,22.35
